createdAt,value
2019-02-19T00:00:38.056Z,24.70
2019-02-19T00:01:38.074Z,24.82
2019-02-19T00:02:38.090Z,24.76
2019-02-19T00:03:38.111Z,24.74
2019-02-19T00:04:38.123Z,24.74
2019-02-19T00:05:38.146Z,24.66
2019-02-19T00:06:38.159Z,24.69
2019-02-19T00:07:38.174Z,24.74
2019-02-19T00:08:38.197Z,24.74
2019-02-19T00:09:38.211Z,24.85
2019-02-19T00:10:38.227Z,24.82
2019-02-19T00:11:38.243Z,24.81
2019-02-19T00:12:38.262Z,24.83
2019-02-19T00:13:38.301Z,24.86
2019-02-19T00:14:38.296Z,24.83
2019-02-19T00:15:38.316Z,24.93
2019-02-19T00:16:38.330Z,24.92
2019-02-19T00:17:38.348Z,24.95
2019-02-19T00:18:38.365Z,24.96
2019-02-19T00:19:38.380Z,24.88
2019-02-19T00:20:38.398Z,24.89
2019-02-19T00:21:38.415Z,24.93
2019-02-19T00:22:38.431Z,24.86
2019-02-19T00:23:38.449Z,24.86
2019-02-19T00:24:38.466Z,24.92
2019-02-19T00:25:38.486Z,24.86
2019-02-19T00:26:38.503Z,24.96
2019-02-19T00:27:38.517Z,24.96
2019-02-19T00:28:38.533Z,25.03
2019-02-19T00:29:38.550Z,25.10
2019-02-19T00:30:38.566Z,25.03
2019-02-19T00:31:38.584Z,25.04
2019-02-19T00:32:38.603Z,24.88
2019-02-19T00:33:38.622Z,24.89
2019-02-19T00:34:38.638Z,24.89
2019-02-19T00:35:38.656Z,24.81
2019-02-19T00:36:38.669Z,24.96
2019-02-19T00:37:38.686Z,24.95
2019-02-19T00:38:38.704Z,25.10
2019-02-19T00:39:38.722Z,25.07
2019-02-19T00:40:38.739Z,25.06
2019-02-19T00:41:38.758Z,24.92
2019-02-19T00:42:38.771Z,24.93
2019-02-19T00:43:38.788Z,24.88
2019-02-19T00:44:38.806Z,25.00
2019-02-19T00:45:38.824Z,25.11
2019-02-19T00:46:38.843Z,25.04
2019-02-19T00:47:38.858Z,25.00
2019-02-19T00:48:38.877Z,24.83
2019-02-19T00:49:38.894Z,25.00
2019-02-19T00:50:38.910Z,25.03
2019-02-19T00:51:38.934Z,25.11
2019-02-19T00:52:38.944Z,25.13
2019-02-19T00:53:38.960Z,25.15
2019-02-19T00:54:38.980Z,25.20
2019-02-19T00:55:38.993Z,25.20
2019-02-19T00:56:39.017Z,25.18
2019-02-19T00:57:39.029Z,25.28
2019-02-19T00:58:39.048Z,25.14
2019-02-19T00:59:39.062Z,25.15
2019-02-19T01:00:39.083Z,25.22
2019-02-19T01:01:39.099Z,25.28
2019-02-19T01:02:39.116Z,25.26
2019-02-19T01:03:39.136Z,25.13
2019-02-19T01:04:39.150Z,25.32
2019-02-19T01:05:39.179Z,25.30
2019-02-19T01:06:39.186Z,25.32
2019-02-19T01:07:39.202Z,25.23
2019-02-19T01:08:39.218Z,25.22
2019-02-19T01:09:39.237Z,25.22
2019-02-19T01:10:39.254Z,25.20
2019-02-19T01:11:39.274Z,25.15
2019-02-19T01:12:39.292Z,25.19
2019-02-19T01:13:39.307Z,25.18
2019-02-19T01:14:39.322Z,25.22
2019-02-19T01:15:39.339Z,25.19
2019-02-19T01:16:39.358Z,25.11
2019-02-19T01:17:39.374Z,25.13
2019-02-19T01:18:39.391Z,25.14
2019-02-19T01:19:39.407Z,25.11
2019-02-19T01:20:39.425Z,25.26
2019-02-19T01:21:39.448Z,25.22
2019-02-19T01:22:39.463Z,25.29
2019-02-19T01:23:39.481Z,25.30
2019-02-19T01:24:39.498Z,25.45
2019-02-19T01:25:39.515Z,25.41
2019-02-19T01:26:39.533Z,25.40
2019-02-19T01:27:39.546Z,25.45
2019-02-19T01:28:39.567Z,25.55
2019-02-19T01:29:39.585Z,25.55
2019-02-19T01:30:39.600Z,25.48
2019-02-19T01:31:39.624Z,25.58
2019-02-19T01:32:39.635Z,25.58
2019-02-19T01:33:39.653Z,25.55
2019-02-19T01:34:39.669Z,25.51
2019-02-19T01:35:39.689Z,25.50
2019-02-19T01:36:39.704Z,25.45
2019-02-19T01:37:39.721Z,25.58
2019-02-19T01:38:39.740Z,25.45
2019-02-19T01:39:39.758Z,25.60
2019-02-19T01:40:39.774Z,25.50
2019-02-19T01:41:39.794Z,25.59
2019-02-19T01:42:39.810Z,25.48
2019-02-19T01:43:39.829Z,25.69
2019-02-19T01:44:39.846Z,25.63
2019-02-19T01:45:39.862Z,25.73
2019-02-19T01:46:39.880Z,25.74
2019-02-19T01:47:39.925Z,25.69
2019-02-19T01:48:39.913Z,25.69
2019-02-19T01:49:39.935Z,25.74
2019-02-19T01:50:39.951Z,25.75
2019-02-19T01:51:39.967Z,25.77
2019-02-19T01:52:39.984Z,25.74
2019-02-19T01:53:40.002Z,25.75
2019-02-19T01:54:40.018Z,25.74
2019-02-19T01:55:40.036Z,25.74
2019-02-19T01:56:40.059Z,25.75
2019-02-19T01:57:40.074Z,25.65
2019-02-19T01:58:40.093Z,25.63
2019-02-19T01:59:40.110Z,25.73
2019-02-19T02:00:40.126Z,25.70
2019-02-19T02:01:40.146Z,25.81
2019-02-19T02:02:40.164Z,25.82
2019-02-19T02:03:40.179Z,25.80
2019-02-19T02:04:40.198Z,25.88
2019-02-19T02:05:40.216Z,25.88
2019-02-19T02:06:40.232Z,25.92
2019-02-19T02:07:40.249Z,25.93
2019-02-19T02:08:40.271Z,25.95
2019-02-19T02:09:40.285Z,25.96
2019-02-19T02:10:40.302Z,25.90
2019-02-19T02:11:40.320Z,25.84
2019-02-19T02:12:40.337Z,25.84
2019-02-19T02:13:40.355Z,25.96
2019-02-19T02:14:40.373Z,25.96
2019-02-19T02:15:42.672Z,25.93
2019-02-19T02:16:40.408Z,25.88
2019-02-19T02:17:40.428Z,25.95
2019-02-19T02:18:40.444Z,25.93
2019-02-19T02:19:40.461Z,26.03
2019-02-19T02:20:40.480Z,26.12
2019-02-19T02:21:40.501Z,26.18
2019-02-19T02:22:40.521Z,26.31
2019-02-19T02:23:40.537Z,26.20
2019-02-19T02:24:40.554Z,26.20
2019-02-19T02:25:40.572Z,26.18
2019-02-19T02:26:40.586Z,26.34
2019-02-19T02:27:40.609Z,26.23
2019-02-19T02:28:40.622Z,26.22
2019-02-19T02:29:40.640Z,26.12
2019-02-19T02:30:40.670Z,26.12
2019-02-19T02:31:40.677Z,26.22
2019-02-19T02:32:40.696Z,26.15
2019-02-19T02:33:40.719Z,26.25
2019-02-19T02:34:40.740Z,26.18
2019-02-19T02:35:40.748Z,26.30
2019-02-19T02:36:40.766Z,26.25
2019-02-19T02:37:40.784Z,26.37
2019-02-19T02:38:40.809Z,26.31
2019-02-19T02:39:40.821Z,26.41
2019-02-19T02:40:40.838Z,26.41
2019-02-19T02:41:40.867Z,26.38
2019-02-19T02:42:40.876Z,26.45
2019-02-19T02:43:40.897Z,26.50
2019-02-19T02:44:40.910Z,26.50
2019-02-19T02:45:40.931Z,26.52
2019-02-19T02:46:40.950Z,26.55
2019-02-19T02:47:40.962Z,26.65
2019-02-19T02:48:40.990Z,26.53
2019-02-19T02:49:41.001Z,26.62
2019-02-19T02:50:41.019Z,26.63
2019-02-19T02:51:41.038Z,26.65
2019-02-19T02:52:41.058Z,26.65
2019-02-19T02:53:41.077Z,26.50
2019-02-19T02:54:41.094Z,26.49
2019-02-19T02:55:41.135Z,26.52
2019-02-19T02:56:41.128Z,26.49
2019-02-19T02:57:41.146Z,26.57
2019-02-19T02:58:41.182Z,26.53
2019-02-19T02:59:41.183Z,26.56
2019-02-19T03:00:41.202Z,26.62
2019-02-19T03:01:41.217Z,26.57
2019-02-19T03:02:41.242Z,26.60
2019-02-19T03:03:41.259Z,26.71
2019-02-19T03:04:41.272Z,26.70
2019-02-19T03:05:41.292Z,26.71
2019-02-19T03:06:41.309Z,26.77
2019-02-19T03:07:41.327Z,26.85
2019-02-19T03:08:41.345Z,26.74
2019-02-19T03:09:41.364Z,26.74
2019-02-19T03:10:41.391Z,26.72
2019-02-19T03:11:41.406Z,26.75
2019-02-19T03:12:41.423Z,26.85
2019-02-19T03:13:41.440Z,26.92
2019-02-19T03:14:41.455Z,26.99
2019-02-19T03:15:41.475Z,26.93
2019-02-19T03:16:41.494Z,27.00
2019-02-19T03:17:41.513Z,27.05
2019-02-19T03:18:41.532Z,27.00
2019-02-19T03:19:41.562Z,26.95
2019-02-19T03:20:41.571Z,27.02
2019-02-19T03:21:41.584Z,27.07
2019-02-19T03:22:41.602Z,27.07
2019-02-19T03:23:41.621Z,26.97
2019-02-19T03:24:41.639Z,26.90
2019-02-19T03:25:41.657Z,26.95
2019-02-19T03:26:41.676Z,26.81
2019-02-19T03:27:41.694Z,26.85
2019-02-19T03:28:41.718Z,26.90
2019-02-19T03:29:41.731Z,26.99
2019-02-19T03:30:41.761Z,26.82
2019-02-19T03:31:41.769Z,26.90
2019-02-19T03:32:41.786Z,26.87
2019-02-19T03:33:41.806Z,26.93
2019-02-19T03:34:41.828Z,27.00
2019-02-19T03:35:41.842Z,26.99
2019-02-19T03:36:41.864Z,26.99
2019-02-19T03:37:41.878Z,26.96
2019-02-19T03:38:41.904Z,26.95
2019-02-19T03:39:41.973Z,26.92
2019-02-19T03:40:41.934Z,26.99
2019-02-19T03:41:41.956Z,27.05
2019-02-19T03:42:41.975Z,27.15
2019-02-19T03:43:41.990Z,27.14
2019-02-19T03:44:42.011Z,27.12
2019-02-19T03:45:42.028Z,27.22
2019-02-19T03:46:42.046Z,27.19
2019-02-19T03:47:42.068Z,27.15
2019-02-19T03:48:42.082Z,27.07
2019-02-19T03:49:42.102Z,27.11
2019-02-19T03:50:42.121Z,27.22
2019-02-19T03:51:42.141Z,27.15
2019-02-19T03:52:42.157Z,27.27
2019-02-19T03:53:42.174Z,27.17
2019-02-19T03:54:42.194Z,27.18
2019-02-19T03:55:42.223Z,27.22
2019-02-19T03:56:42.233Z,27.17
2019-02-19T03:57:42.266Z,27.12
2019-02-19T03:58:42.275Z,27.14
2019-02-19T03:59:42.291Z,27.24
2019-02-19T04:00:42.304Z,27.18
2019-02-19T04:01:42.324Z,27.15
2019-02-19T04:02:42.342Z,27.23
2019-02-19T04:03:42.368Z,27.24
2019-02-19T04:04:42.382Z,27.23
2019-02-19T04:05:42.398Z,27.29
2019-02-19T04:06:42.418Z,27.26
2019-02-19T04:07:42.438Z,27.33
2019-02-19T04:08:42.455Z,27.34
2019-02-19T04:09:42.474Z,27.26
2019-02-19T04:10:42.492Z,27.30
2019-02-19T04:11:42.509Z,27.41
2019-02-19T04:12:42.528Z,27.37
2019-02-19T04:13:42.548Z,27.45
2019-02-19T04:14:42.568Z,27.44
2019-02-19T04:15:42.586Z,27.46
2019-02-19T04:16:42.603Z,27.52
2019-02-19T04:17:42.620Z,27.44
2019-02-19T04:18:42.644Z,27.37
2019-02-19T04:19:42.663Z,27.44
2019-02-19T04:20:42.676Z,27.55
2019-02-19T04:21:42.700Z,27.45
2019-02-19T04:22:42.718Z,27.55
2019-02-19T04:23:42.736Z,27.61
2019-02-19T04:24:42.752Z,27.61
2019-02-19T04:25:42.772Z,27.52
2019-02-19T04:26:42.791Z,27.61
2019-02-19T04:27:42.812Z,27.58
2019-02-19T04:28:42.830Z,27.52
2019-02-19T04:29:42.848Z,27.60
2019-02-19T04:30:42.865Z,27.52
2019-02-19T04:31:42.895Z,27.55
2019-02-19T04:32:42.908Z,27.62
2019-02-19T04:33:42.931Z,27.60
2019-02-19T04:34:42.941Z,27.48
2019-02-19T04:35:42.958Z,27.51
2019-02-19T04:36:42.977Z,27.46
2019-02-19T04:37:43.020Z,27.46
2019-02-19T04:38:43.017Z,27.60
2019-02-19T04:39:43.038Z,27.62
2019-02-19T04:40:43.057Z,27.54
2019-02-19T04:41:43.072Z,27.61
2019-02-19T04:42:43.098Z,27.64
2019-02-19T04:43:43.110Z,27.60
2019-02-19T04:44:43.129Z,27.55
2019-02-19T04:45:43.147Z,27.58
2019-02-19T04:46:43.171Z,27.52
2019-02-19T04:47:43.187Z,27.55
2019-02-19T04:48:43.208Z,27.51
2019-02-19T04:49:43.227Z,27.42
2019-02-19T04:50:43.250Z,27.29
2019-02-19T04:51:43.260Z,27.44
2019-02-19T04:52:43.308Z,27.33
2019-02-19T04:53:43.303Z,27.39
2019-02-19T04:54:43.318Z,27.39
2019-02-19T04:55:43.337Z,27.41
2019-02-19T04:56:43.356Z,27.45
2019-02-19T04:57:43.376Z,27.37
2019-02-19T04:58:43.423Z,27.39
2019-02-19T04:59:43.412Z,27.49
2019-02-19T05:00:43.435Z,27.49
2019-02-19T05:01:43.448Z,27.52
2019-02-19T05:02:43.469Z,27.49
2019-02-19T05:03:43.487Z,27.48
2019-02-19T05:04:43.506Z,27.58
2019-02-19T05:05:43.527Z,27.42
2019-02-19T05:06:43.543Z,27.52
2019-02-19T05:07:43.562Z,27.61
2019-02-19T05:08:44.632Z,27.49
2019-02-19T05:09:43.602Z,27.58
2019-02-19T05:10:43.618Z,27.61
2019-02-19T05:11:43.637Z,27.64
2019-02-19T05:12:43.657Z,27.61
2019-02-19T05:13:43.676Z,27.55
2019-02-19T05:14:43.694Z,27.52
2019-02-19T05:15:43.717Z,27.58
2019-02-19T05:16:43.736Z,27.58
2019-02-19T05:17:43.751Z,27.54
2019-02-19T05:18:43.770Z,27.49
2019-02-19T05:19:43.805Z,27.51
2019-02-19T05:20:43.810Z,27.51
2019-02-19T05:21:43.826Z,27.62
2019-02-19T05:22:43.848Z,27.54
2019-02-19T05:23:43.861Z,27.61
2019-02-19T05:24:43.882Z,27.49
2019-02-19T05:25:43.901Z,27.41
2019-02-19T05:26:43.918Z,27.52
2019-02-19T05:27:43.937Z,27.51
2019-02-19T05:28:43.957Z,27.46
2019-02-19T05:29:43.978Z,27.61
2019-02-19T05:30:43.998Z,27.64
2019-02-19T05:31:44.017Z,27.67
2019-02-19T05:32:44.034Z,27.62
2019-02-19T05:33:44.052Z,27.54
2019-02-19T05:34:44.071Z,27.61
2019-02-19T05:35:44.098Z,27.64
2019-02-19T05:36:44.110Z,27.62
2019-02-19T05:37:44.133Z,27.62
2019-02-19T05:38:44.145Z,27.64
2019-02-19T05:39:44.165Z,27.75
2019-02-19T05:40:44.183Z,27.74
2019-02-19T05:41:44.227Z,27.75
2019-02-19T05:42:44.227Z,27.70
2019-02-19T05:43:44.240Z,27.72
2019-02-19T05:44:44.258Z,27.72
2019-02-19T05:45:44.281Z,27.80
2019-02-19T05:46:49.802Z,27.75
2019-02-19T05:47:44.316Z,27.60
2019-02-19T05:48:44.336Z,27.65
2019-02-19T05:49:44.364Z,27.58
2019-02-19T05:50:44.374Z,27.58
2019-02-19T05:51:44.398Z,27.61
2019-02-19T05:52:44.409Z,27.54
2019-02-19T05:53:44.955Z,27.67
2019-02-19T05:54:44.451Z,27.70
2019-02-19T05:55:44.468Z,27.83
2019-02-19T05:56:44.489Z,27.77
2019-02-19T05:57:44.507Z,27.75
2019-02-19T05:58:44.527Z,27.71
2019-02-19T05:59:44.547Z,27.61
2019-02-19T06:00:44.564Z,27.74
2019-02-19T06:01:44.586Z,27.71
2019-02-19T06:02:44.602Z,27.64
2019-02-19T06:03:44.621Z,27.68
2019-02-19T06:04:44.663Z,27.65
2019-02-19T06:05:44.657Z,27.65
2019-02-19T06:06:44.676Z,27.71
2019-02-19T06:07:44.695Z,27.70
2019-02-19T06:08:44.714Z,27.72
2019-02-19T06:09:44.733Z,27.74
2019-02-19T06:10:44.753Z,27.75
2019-02-19T06:11:44.771Z,27.72
2019-02-19T06:12:44.789Z,27.72
2019-02-19T06:13:44.815Z,27.72
2019-02-19T06:14:44.826Z,27.74
2019-02-19T06:15:44.846Z,27.68
2019-02-19T06:16:44.865Z,27.74
2019-02-19T06:17:44.886Z,27.75
2019-02-19T06:18:44.929Z,27.80
2019-02-19T06:19:44.922Z,27.79
2019-02-19T06:20:44.942Z,27.85
2019-02-19T06:21:45.002Z,27.90
2019-02-19T06:22:44.981Z,27.95
2019-02-19T06:23:44.997Z,27.95
2019-02-19T06:24:45.016Z,28.08
2019-02-19T06:25:45.037Z,28.05
2019-02-19T06:26:45.059Z,27.95
2019-02-19T06:27:45.079Z,28.09
2019-02-19T06:28:45.095Z,28.09
2019-02-19T06:29:45.112Z,28.12
2019-02-19T06:30:45.130Z,28.05
2019-02-19T06:31:45.154Z,28.27
2019-02-19T06:32:45.171Z,28.09
2019-02-19T06:33:45.189Z,28.26
2019-02-19T06:34:45.210Z,28.19
2019-02-19T06:35:45.228Z,28.22
2019-02-19T06:36:45.246Z,28.24
2019-02-19T06:37:45.268Z,28.29
2019-02-19T06:38:45.285Z,28.32
2019-02-19T06:39:45.306Z,28.26
2019-02-19T06:40:45.323Z,28.22
2019-02-19T06:41:45.367Z,28.22
2019-02-19T06:42:45.362Z,28.07
2019-02-19T06:43:45.392Z,28.04
2019-02-19T06:44:45.400Z,28.04
2019-02-19T06:45:45.420Z,27.97
2019-02-19T06:46:45.440Z,28.01
2019-02-19T06:47:45.459Z,27.97
2019-02-19T06:48:45.475Z,28.01
2019-02-19T06:49:45.496Z,28.01
2019-02-19T06:50:45.515Z,28.08
2019-02-19T06:51:45.536Z,28.02
2019-02-19T06:52:45.553Z,27.87
2019-02-19T06:53:45.572Z,27.92
2019-02-19T06:54:45.591Z,28.02
2019-02-19T06:55:45.610Z,27.93
2019-02-19T06:56:45.641Z,27.87
2019-02-19T06:57:45.658Z,27.89
2019-02-19T06:58:45.668Z,27.87
2019-02-19T06:59:45.694Z,28.04
2019-02-19T07:00:45.706Z,27.93
2019-02-19T07:01:45.726Z,28.01
2019-02-19T07:02:45.749Z,28.08
2019-02-19T07:03:45.763Z,28.22
2019-02-19T07:04:45.783Z,28.29
2019-02-19T07:05:45.806Z,28.30
2019-02-19T07:06:45.837Z,28.24
2019-02-19T07:07:45.864Z,28.34
2019-02-19T07:08:45.863Z,28.36
2019-02-19T07:09:45.880Z,28.32
2019-02-19T07:10:45.900Z,28.30
2019-02-19T07:11:45.949Z,28.32
2019-02-19T07:12:45.937Z,28.38
2019-02-19T07:13:45.957Z,28.42
2019-02-19T07:14:45.991Z,28.42
2019-02-19T07:15:45.995Z,28.38
2019-02-19T07:16:46.016Z,28.46
2019-02-19T07:17:46.035Z,28.49
2019-02-19T07:18:46.054Z,28.57
2019-02-19T07:19:46.077Z,28.57
2019-02-19T07:20:46.091Z,28.64
2019-02-19T07:21:46.112Z,28.72
2019-02-19T07:22:46.138Z,28.72
2019-02-19T07:23:46.150Z,28.69
2019-02-19T07:24:46.171Z,28.79
2019-02-19T07:25:46.189Z,28.73
2019-02-19T07:26:46.209Z,28.72
2019-02-19T07:27:46.232Z,28.75
2019-02-19T07:28:46.246Z,28.72
2019-02-19T07:29:46.280Z,28.75
2019-02-19T07:30:46.288Z,28.73
2019-02-19T07:31:46.307Z,28.66
2019-02-19T07:32:46.324Z,28.66
2019-02-19T07:33:46.349Z,28.64
2019-02-19T07:34:46.366Z,28.79
2019-02-19T07:35:46.384Z,28.79
2019-02-19T07:36:46.405Z,28.81
2019-02-19T07:37:46.425Z,28.69
2019-02-19T07:38:46.448Z,28.71
2019-02-19T07:39:46.462Z,28.78
2019-02-19T07:40:46.482Z,28.78
2019-02-19T07:41:46.501Z,28.76
2019-02-19T07:42:46.523Z,28.73
2019-02-19T07:43:46.595Z,28.75
2019-02-19T07:44:46.566Z,28.75
2019-02-19T07:45:46.580Z,28.75
2019-02-19T07:46:48.079Z,28.76
2019-02-19T07:47:46.703Z,28.56
2019-02-19T07:48:46.638Z,28.66
2019-02-19T07:49:46.659Z,28.61
2019-02-19T07:50:46.678Z,28.63
2019-02-19T07:51:46.697Z,28.64
2019-02-19T07:52:46.721Z,28.60
2019-02-19T07:53:46.739Z,28.58
2019-02-19T07:54:46.757Z,28.78
2019-02-19T07:55:46.778Z,28.71
2019-02-19T07:56:46.796Z,28.75
2019-02-19T07:57:46.817Z,28.85
2019-02-19T07:58:46.836Z,28.81
2019-02-19T07:59:46.854Z,28.78
2019-02-19T08:00:46.880Z,28.90
2019-02-19T08:01:46.896Z,28.95
2019-02-19T08:02:46.915Z,28.95
2019-02-19T08:03:46.936Z,28.95
2019-02-19T08:04:46.952Z,28.94
2019-02-19T08:05:46.972Z,29.07
2019-02-19T08:06:46.991Z,29.14
2019-02-19T08:07:47.013Z,29.14
2019-02-19T08:08:47.031Z,29.16
2019-02-19T08:09:47.053Z,29.26
2019-02-19T08:10:47.070Z,29.25
2019-02-19T08:11:47.096Z,29.17
2019-02-19T08:12:47.111Z,29.11
2019-02-19T08:13:47.134Z,28.95
2019-02-19T08:14:47.154Z,28.85
2019-02-19T08:15:47.180Z,28.91
2019-02-19T08:16:47.209Z,28.95
2019-02-19T08:17:47.215Z,28.93
2019-02-19T08:18:47.231Z,28.83
2019-02-19T08:19:48.786Z,28.76
2019-02-19T08:20:47.268Z,28.78
2019-02-19T08:21:47.293Z,28.73
2019-02-19T08:22:47.312Z,28.73
2019-02-19T08:23:47.332Z,28.56
2019-02-19T08:24:47.349Z,28.60
2019-02-19T08:25:47.370Z,28.67
2019-02-19T08:26:47.389Z,28.58
2019-02-19T08:27:47.414Z,28.51
2019-02-19T08:28:47.431Z,28.45
2019-02-19T08:29:47.447Z,28.57
2019-02-19T08:30:47.492Z,28.60
2019-02-19T08:31:47.488Z,28.72
2019-02-19T08:32:47.508Z,28.63
2019-02-19T08:33:47.527Z,28.73
2019-02-19T08:34:47.547Z,28.64
2019-02-19T08:35:47.566Z,28.60
2019-02-19T08:36:47.603Z,28.69
2019-02-19T08:37:47.607Z,28.63
2019-02-19T08:38:47.625Z,28.60
2019-02-19T08:39:47.643Z,28.78
2019-02-19T08:40:47.666Z,28.73
2019-02-19T08:41:47.708Z,28.73
2019-02-19T08:42:47.707Z,28.76
2019-02-19T08:43:47.725Z,28.85
2019-02-19T08:44:47.744Z,28.82
2019-02-19T08:45:47.763Z,28.79
2019-02-19T08:46:47.784Z,28.86
2019-02-19T08:47:47.803Z,28.82
2019-02-19T08:48:47.822Z,28.91
2019-02-19T08:49:47.844Z,29.02
2019-02-19T08:50:47.862Z,29.04
2019-02-19T08:51:55.888Z,28.98
2019-02-19T08:52:47.903Z,29.01
2019-02-19T08:53:47.928Z,29.04
2019-02-19T08:54:47.945Z,28.95
2019-02-19T08:55:47.962Z,28.82
2019-02-19T08:56:47.979Z,28.78
2019-02-19T08:57:48.002Z,28.63
2019-02-19T08:58:48.020Z,28.63
2019-02-19T08:59:48.042Z,28.69
2019-02-19T09:00:48.069Z,28.60
2019-02-19T09:01:48.088Z,28.67
2019-02-19T09:02:48.102Z,28.78
2019-02-19T09:03:48.120Z,28.54
2019-02-19T09:04:48.149Z,28.51
2019-02-19T09:05:48.165Z,28.56
2019-02-19T09:06:48.177Z,28.61
2019-02-19T09:07:48.198Z,28.58
2019-02-19T09:08:48.219Z,28.45
2019-02-19T09:09:48.236Z,28.41
2019-02-19T09:10:48.265Z,28.41
2019-02-19T09:11:48.277Z,28.36
2019-02-19T09:12:48.296Z,28.30
2019-02-19T09:13:48.315Z,28.32
2019-02-19T09:14:49.424Z,28.30
2019-02-19T09:15:48.361Z,28.26
2019-02-19T09:16:48.375Z,28.32
2019-02-19T09:17:51.956Z,28.41
2019-02-19T09:18:48.414Z,28.27
2019-02-19T09:19:48.438Z,28.29
2019-02-19T09:20:48.454Z,28.26
2019-02-19T09:21:48.473Z,28.19
2019-02-19T09:22:48.494Z,28.14
2019-02-19T09:23:48.527Z,28.20
2019-02-19T09:24:48.531Z,28.29
2019-02-19T09:25:48.559Z,28.30
2019-02-19T09:26:48.571Z,28.35
2019-02-19T09:27:48.588Z,28.35
2019-02-19T09:28:48.821Z,28.35
2019-02-19T09:29:48.629Z,28.20
2019-02-19T09:30:48.769Z,28.26
2019-02-19T09:31:49.538Z,28.22
2019-02-19T09:32:48.689Z,28.12
2019-02-19T09:33:48.705Z,28.19
2019-02-19T09:34:48.723Z,28.22
2019-02-19T09:35:48.744Z,28.19
2019-02-19T09:36:48.810Z,28.27
2019-02-19T09:37:48.782Z,28.16
2019-02-19T09:38:48.803Z,28.14
2019-02-19T09:39:48.821Z,28.05
2019-02-19T09:40:48.839Z,28.08
2019-02-19T09:41:48.861Z,28.11
2019-02-19T09:42:48.880Z,28.04
2019-02-19T09:43:48.901Z,28.08
2019-02-19T09:44:48.916Z,28.05
2019-02-19T09:45:48.966Z,28.08
2019-02-19T09:46:48.955Z,28.11
2019-02-19T09:47:48.974Z,28.07
2019-02-19T09:48:49.001Z,28.01
2019-02-19T09:49:49.014Z,27.93
2019-02-19T09:50:49.032Z,28.05
2019-02-19T09:51:49.061Z,28.01
2019-02-19T09:52:49.074Z,27.87
2019-02-19T09:53:49.098Z,27.87
2019-02-19T09:54:49.113Z,27.85
2019-02-19T09:55:49.130Z,27.82
2019-02-19T09:56:49.147Z,27.80
2019-02-19T09:57:49.165Z,27.62
2019-02-19T09:58:49.185Z,27.65
2019-02-19T09:59:49.202Z,27.71
2019-02-19T10:00:49.225Z,27.70
2019-02-19T10:01:49.242Z,27.60
2019-02-19T10:02:49.265Z,27.62
2019-02-19T10:03:49.283Z,27.64
2019-02-19T10:04:49.306Z,27.62
2019-02-19T10:05:49.326Z,27.71
2019-02-19T10:06:49.336Z,27.77
2019-02-19T10:07:49.355Z,27.60
2019-02-19T10:08:49.377Z,27.71
2019-02-19T10:09:49.395Z,27.68
2019-02-19T10:10:49.413Z,27.65
2019-02-19T10:11:49.431Z,27.70
2019-02-19T10:12:49.450Z,27.72
2019-02-19T10:13:49.469Z,27.65
2019-02-19T10:14:49.495Z,27.61
2019-02-19T10:15:49.509Z,27.54
2019-02-19T10:16:49.527Z,27.61
2019-02-19T10:17:49.546Z,27.64
2019-02-19T10:18:49.564Z,27.51
2019-02-19T10:19:49.580Z,27.41
2019-02-19T10:20:49.601Z,27.41
2019-02-19T10:21:49.621Z,27.32
2019-02-19T10:22:49.639Z,27.34
2019-02-19T10:23:49.658Z,27.36
2019-02-19T10:24:49.678Z,27.39
2019-02-19T10:25:49.695Z,27.39
2019-02-19T10:26:49.813Z,27.42
2019-02-19T10:27:49.731Z,27.44
2019-02-19T10:28:49.752Z,27.52
2019-02-19T10:29:49.771Z,27.46
2019-02-19T10:30:49.790Z,27.54
2019-02-19T10:31:49.811Z,27.49
2019-02-19T10:32:49.831Z,27.48
2019-02-19T10:33:49.848Z,27.42
2019-02-19T10:34:49.863Z,27.54
2019-02-19T10:35:49.882Z,27.52
2019-02-19T10:36:49.905Z,27.51
2019-02-19T10:37:51.615Z,27.45
2019-02-19T10:38:49.939Z,27.46
2019-02-19T10:39:49.956Z,27.49
2019-02-19T10:40:49.998Z,27.36
2019-02-19T10:41:49.995Z,27.34
2019-02-19T10:42:50.012Z,27.34
2019-02-19T10:43:50.035Z,27.37
2019-02-19T10:44:50.050Z,27.36
2019-02-19T10:45:50.068Z,27.19
2019-02-19T10:46:50.097Z,27.23
2019-02-19T10:47:50.106Z,27.17
2019-02-19T10:48:50.126Z,27.23
2019-02-19T10:49:50.143Z,27.12
2019-02-19T10:50:50.162Z,27.09
2019-02-19T10:51:50.182Z,27.26
2019-02-19T10:52:51.699Z,27.17
2019-02-19T10:53:50.219Z,27.14
2019-02-19T10:54:51.235Z,27.15
2019-02-19T10:55:50.256Z,27.12
2019-02-19T10:56:50.273Z,27.04
2019-02-19T10:57:50.297Z,27.19
2019-02-19T10:58:50.313Z,27.15
2019-02-19T10:59:50.330Z,27.24
2019-02-19T11:00:50.352Z,27.22
2019-02-19T11:01:50.368Z,27.19
2019-02-19T11:02:50.390Z,27.22
2019-02-19T11:03:50.415Z,27.08
2019-02-19T11:04:50.426Z,27.11
2019-02-19T11:05:50.453Z,27.08
2019-02-19T11:06:50.459Z,27.05
2019-02-19T11:07:50.485Z,27.11
2019-02-19T11:08:50.495Z,27.05
2019-02-19T11:09:50.513Z,27.07
2019-02-19T11:10:51.003Z,27.05
2019-02-19T11:11:50.552Z,27.15
2019-02-19T11:12:50.569Z,27.07
2019-02-19T11:13:50.634Z,27.05
2019-02-19T11:14:50.606Z,27.05
2019-02-19T11:15:50.625Z,27.02
2019-02-19T11:16:50.645Z,26.99
2019-02-19T11:17:50.663Z,26.93
2019-02-19T11:18:50.680Z,26.99
2019-02-19T11:19:50.699Z,26.99
2019-02-19T11:20:50.719Z,26.97
2019-02-19T11:21:50.737Z,26.99
2019-02-19T11:22:50.760Z,26.92
2019-02-19T11:23:50.771Z,26.81
2019-02-19T11:24:50.798Z,26.89
2019-02-19T11:25:50.813Z,26.87
2019-02-19T11:26:50.831Z,26.92
2019-02-19T11:27:50.846Z,26.74
2019-02-19T11:28:50.886Z,26.78
2019-02-19T11:29:50.885Z,26.75
2019-02-19T11:30:50.901Z,26.82
2019-02-19T11:31:50.922Z,26.77
2019-02-19T11:32:50.940Z,26.72
2019-02-19T11:33:50.956Z,26.70
2019-02-19T11:34:50.976Z,26.68
2019-02-19T11:35:50.990Z,26.72
2019-02-19T11:36:51.019Z,26.77
2019-02-19T11:37:51.073Z,26.72
2019-02-19T11:38:51.050Z,26.75
2019-02-19T11:39:51.078Z,26.74
2019-02-19T11:40:51.084Z,26.78
2019-02-19T11:41:51.103Z,26.72
2019-02-19T11:42:51.128Z,26.65
2019-02-19T11:43:51.142Z,26.65
2019-02-19T11:44:51.158Z,26.59
2019-02-19T11:45:51.175Z,26.68
2019-02-19T11:46:51.194Z,26.62
2019-02-19T11:47:51.212Z,26.57
2019-02-19T11:48:51.235Z,26.49
2019-02-19T11:49:51.249Z,26.56
2019-02-19T11:50:51.266Z,26.59
2019-02-19T11:51:51.283Z,26.50
2019-02-19T11:52:51.305Z,26.59
2019-02-19T11:53:51.320Z,26.62
2019-02-19T11:54:51.342Z,26.55
2019-02-19T11:55:51.396Z,26.53
2019-02-19T11:56:51.378Z,26.67
2019-02-19T11:57:51.394Z,26.55
2019-02-19T11:58:51.414Z,26.53
2019-02-19T11:59:51.430Z,26.45
2019-02-19T12:00:51.474Z,26.55
2019-02-19T12:01:51.467Z,26.45
2019-02-19T12:02:51.486Z,26.52
2019-02-19T12:03:51.503Z,26.53
2019-02-19T12:04:51.522Z,26.53
2019-02-19T12:05:51.548Z,26.50
2019-02-19T12:06:51.558Z,26.50
2019-02-19T12:07:51.574Z,26.55
2019-02-19T12:08:51.597Z,26.49
2019-02-19T12:09:51.616Z,26.45
2019-02-19T12:10:51.632Z,26.53
2019-02-19T12:11:51.649Z,26.41
2019-02-19T12:12:51.669Z,26.30
2019-02-19T12:13:51.685Z,26.35
2019-02-19T12:14:51.704Z,26.40
2019-02-19T12:15:51.719Z,26.37
2019-02-19T12:16:51.740Z,26.37
2019-02-19T12:17:51.756Z,26.48
2019-02-19T12:18:51.779Z,26.53
2019-02-19T12:19:51.797Z,26.40
2019-02-19T12:20:51.813Z,26.34
2019-02-19T12:21:51.829Z,26.33
2019-02-19T12:22:51.845Z,26.35
2019-02-19T12:23:51.863Z,26.45
2019-02-19T12:24:51.891Z,26.33
2019-02-19T12:25:51.902Z,26.52
2019-02-19T12:26:51.918Z,26.33
2019-02-19T12:27:51.946Z,26.38
2019-02-19T12:28:51.956Z,26.38
2019-02-19T12:29:51.976Z,26.35
2019-02-19T12:30:51.991Z,26.37
2019-02-19T12:31:52.018Z,26.38
2019-02-19T12:32:52.032Z,26.35
2019-02-19T12:33:52.046Z,26.40
2019-02-19T12:34:52.066Z,26.35
2019-02-19T12:35:52.131Z,26.41
2019-02-19T12:36:52.100Z,26.37
2019-02-19T12:37:52.125Z,26.34
2019-02-19T12:38:52.136Z,26.41
2019-02-19T12:39:52.154Z,26.37
2019-02-19T12:40:52.174Z,26.45
2019-02-19T12:41:52.190Z,26.48
2019-02-19T12:42:52.208Z,26.45
2019-02-19T12:43:52.225Z,26.38
2019-02-19T12:44:52.243Z,26.40
2019-02-19T12:45:52.260Z,26.35
2019-02-19T12:46:52.280Z,26.25
2019-02-19T12:47:52.298Z,26.28
2019-02-19T12:48:54.645Z,26.34
2019-02-19T12:49:52.336Z,26.30
2019-02-19T12:50:52.353Z,26.25
2019-02-19T12:51:52.378Z,26.19
2019-02-19T12:52:52.385Z,26.26